createdAt,value
2018-12-31T00:00:15.690Z,2.20
2018-12-31T00:02:45.950Z,1.40
2018-12-31T00:05:16.161Z,1.67
2018-12-31T00:07:46.491Z,3.37
2018-12-31T00:10:16.881Z,3.63
2018-12-31T00:12:47.104Z,1.70
2018-12-31T00:15:17.476Z,3.50
2018-12-31T00:17:47.696Z,2.53
2018-12-31T00:20:18.036Z,2.97
2018-12-31T00:22:48.324Z,3.90
2018-12-31T00:25:18.524Z,2.10
2018-12-31T00:27:48.764Z,2.10
2018-12-31T00:30:19.096Z,1.50
2018-12-31T00:32:49.409Z,0.80
2018-12-31T00:35:19.712Z,0.93
2018-12-31T00:37:50.064Z,4.30
2018-12-31T00:40:20.372Z,1.53
2018-12-31T00:42:50.716Z,3.07
2018-12-31T00:45:20.913Z,1.73
2018-12-31T00:47:51.196Z,3.20
2018-12-31T00:50:21.441Z,5.33
2018-12-31T00:52:51.736Z,2.87
2018-12-31T00:55:22.044Z,1.97
2018-12-31T00:57:52.244Z,2.57
2018-12-31T01:00:22.608Z,2.20
2018-12-31T01:02:53.022Z,1.13
2018-12-31T01:05:23.348Z,2.37
2018-12-31T01:07:55.374Z,2.40
2018-12-31T01:10:25.638Z,1.07
2018-12-31T01:12:55.862Z,1.63
2018-12-31T01:15:26.183Z,3.80
2018-12-31T01:17:56.652Z,2.00
2018-12-31T01:20:27.003Z,0.90
2018-12-31T01:22:57.449Z,2.47
2018-12-31T01:25:28.069Z,0.80
2018-12-31T01:27:58.572Z,3.17
2018-12-31T01:30:29.052Z,2.10
2018-12-31T01:32:59.272Z,1.30
2018-12-31T01:35:29.540Z,2.60
2018-12-31T01:37:59.925Z,1.30
2018-12-31T01:40:30.604Z,1.17
2018-12-31T01:43:00.809Z,1.20
2018-12-31T01:45:31.030Z,2.70
2018-12-31T01:48:01.426Z,2.97
2018-12-31T01:50:31.688Z,1.03
2018-12-31T01:53:02.104Z,2.83
2018-12-31T01:55:32.608Z,2.40
2018-12-31T01:58:02.884Z,2.00
2018-12-31T02:00:33.064Z,0.90
2018-12-31T02:03:03.423Z,2.27
2018-12-31T02:05:33.740Z,0.87
2018-12-31T02:08:04.044Z,3.27
2018-12-31T02:10:34.393Z,1.50
2018-12-31T02:13:04.939Z,1.87
2018-12-31T02:15:35.212Z,3.40
2018-12-31T02:18:05.657Z,1.50
2018-12-31T02:20:35.869Z,2.43
2018-12-31T02:23:06.084Z,1.17
2018-12-31T02:25:36.483Z,2.93
2018-12-31T02:28:06.837Z,2.40
2018-12-31T02:30:37.100Z,1.73
2018-12-31T02:33:07.309Z,2.17
2018-12-31T02:35:37.445Z,3.37
2018-12-31T02:38:07.661Z,2.10
2018-12-31T02:40:38.133Z,3.33
2018-12-31T02:43:08.484Z,2.77
2018-12-31T02:45:38.936Z,1.77
2018-12-31T02:48:09.528Z,1.30
2018-12-31T02:50:39.805Z,2.40
2018-12-31T02:53:10.089Z,2.10
2018-12-31T02:55:40.225Z,2.10
2018-12-31T02:58:10.501Z,2.00
2018-12-31T03:00:40.712Z,2.80
2018-12-31T03:03:11.254Z,2.47
2018-12-31T03:05:41.588Z,3.40
2018-12-31T03:08:11.985Z,1.67
2018-12-31T03:10:42.500Z,2.07
2018-12-31T03:13:12.691Z,3.83
2018-12-31T03:15:43.049Z,3.50
2018-12-31T03:18:13.172Z,1.90
2018-12-31T03:20:43.652Z,4.43
2018-12-31T03:23:13.960Z,3.07
2018-12-31T03:25:44.355Z,3.83
2018-12-31T03:28:14.574Z,4.47
2018-12-31T03:30:44.957Z,1.93
2018-12-31T03:33:15.434Z,8.73
2018-12-31T03:35:45.984Z,6.20
2018-12-31T03:38:16.483Z,3.60
2018-12-31T03:40:46.934Z,2.17
2018-12-31T03:43:17.406Z,1.77
2018-12-31T03:45:47.621Z,3.33
2018-12-31T03:48:18.084Z,2.10
2018-12-31T03:50:48.535Z,5.37
2018-12-31T03:53:18.889Z,5.17
2018-12-31T03:55:49.022Z,6.30
2018-12-31T03:58:19.484Z,3.27
2018-12-31T04:00:49.796Z,4.33
2018-12-31T04:03:20.406Z,2.40
2018-12-31T04:05:50.952Z,2.87
2018-12-31T04:08:21.468Z,2.70
2018-12-31T04:10:51.950Z,3.20
2018-12-31T04:13:22.148Z,4.33
2018-12-31T04:15:52.845Z,2.73
2018-12-31T04:18:23.310Z,2.10
2018-12-31T04:20:53.853Z,2.40
2018-12-31T04:23:24.539Z,4.03
2018-12-31T04:25:54.797Z,2.03
2018-12-31T04:28:25.228Z,3.27
2018-12-31T04:30:55.424Z,4.27
2018-12-31T04:33:25.780Z,3.87
2018-12-31T04:35:55.981Z,3.73
2018-12-31T04:38:26.128Z,4.17
2018-12-31T04:40:56.328Z,4.80
2018-12-31T04:43:26.540Z,3.87
2018-12-31T04:45:56.742Z,3.27
2018-12-31T04:48:26.962Z,5.37
2018-12-31T04:50:57.233Z,4.93
2018-12-31T04:53:27.390Z,9.83
2018-12-31T04:55:57.765Z,16.40
2018-12-31T04:58:29.257Z,4.17
2018-12-31T05:00:59.699Z,5.50
2018-12-31T05:03:30.187Z,4.23
2018-12-31T05:06:00.471Z,2.07
2018-12-31T05:08:30.970Z,5.20
2018-12-31T05:11:01.252Z,3.00
2018-12-31T05:13:31.466Z,3.87
2018-12-31T05:16:01.862Z,3.73
2018-12-31T05:18:32.180Z,5.83
2018-12-31T05:21:03.040Z,4.90
2018-12-31T05:23:33.396Z,7.97
2018-12-31T05:26:03.664Z,5.37
2018-12-31T05:28:33.991Z,3.33
2018-12-31T05:31:04.535Z,8.13
2018-12-31T05:33:35.084Z,3.10
2018-12-31T05:36:05.394Z,7.33
2018-12-31T05:38:35.885Z,8.27
2018-12-31T05:41:06.112Z,4.93
2018-12-31T05:43:36.392Z,9.03
2018-12-31T05:46:06.596Z,3.30
2018-12-31T05:48:37.092Z,4.17
2018-12-31T05:51:07.629Z,3.23
2018-12-31T05:53:37.972Z,4.23
2018-12-31T05:56:08.380Z,7.30
2018-12-31T05:58:38.864Z,5.77
2018-12-31T06:01:09.160Z,5.33
2018-12-31T06:03:39.371Z,4.53
2018-12-31T06:06:09.584Z,5.93
2018-12-31T06:08:39.984Z,6.57
2018-12-31T06:11:10.216Z,5.13
2018-12-31T06:13:40.413Z,5.30
2018-12-31T06:16:10.606Z,7.23
2018-12-31T06:18:40.831Z,5.47
2018-12-31T06:21:11.226Z,6.10
2018-12-31T06:23:41.756Z,6.87
2018-12-31T06:26:12.600Z,12.30
2018-12-31T06:28:42.900Z,7.53
2018-12-31T06:31:13.780Z,6.37
2018-12-31T06:33:44.188Z,3.70
2018-12-31T06:36:14.677Z,17.23
2018-12-31T06:38:45.048Z,8.17
2018-12-31T06:41:15.476Z,6.23
2018-12-31T06:43:45.740Z,6.23
2018-12-31T06:46:15.953Z,77.90
2018-12-31T06:48:46.460Z,9.80
2018-12-31T06:51:16.780Z,9.50
2018-12-31T06:53:47.021Z,29.47
2018-12-31T06:56:17.708Z,90.47
2018-12-31T06:58:48.176Z,12.67
2018-12-31T07:01:18.593Z,30.93
2018-12-31T07:03:49.001Z,164.53
2018-12-31T07:06:19.328Z,43.67
2018-12-31T07:08:49.800Z,13.73
2018-12-31T07:11:20.225Z,196.87
2018-12-31T07:13:50.800Z,251.70
2018-12-31T07:16:21.120Z,344.97
2018-12-31T07:18:51.668Z,57.93
2018-12-31T07:21:22.217Z,120.07
2018-12-31T07:23:52.800Z,134.57
2018-12-31T07:26:23.212Z,135.07
2018-12-31T07:28:53.785Z,38.17
2018-12-31T07:31:24.100Z,225.93
2018-12-31T07:33:54.532Z,75.57
2018-12-31T07:36:24.945Z,42.83
2018-12-31T07:38:55.268Z,78.30
2018-12-31T07:41:25.584Z,165.80
2018-12-31T07:43:56.128Z,132.30
2018-12-31T07:46:26.556Z,69.57
2018-12-31T07:48:57.100Z,116.10
2018-12-31T07:51:27.696Z,94.90
2018-12-31T07:53:57.944Z,38.03
2018-12-31T07:56:28.749Z,176.70
2018-12-31T07:58:59.116Z,150.37
2018-12-31T08:01:29.624Z,115.90
2018-12-31T08:04:00.068Z,290.83
2018-12-31T08:06:30.516Z,320.50
2018-12-31T08:09:00.934Z,401.93
2018-12-31T08:11:31.561Z,19.63
2018-12-31T08:14:02.411Z,63.37
2018-12-31T08:16:33.257Z,147.33
2018-12-31T08:19:03.929Z,51.33
2018-12-31T08:21:34.496Z,283.70
2018-12-31T08:24:04.929Z,71.70
2018-12-31T08:26:35.537Z,235.93
2018-12-31T08:29:06.041Z,34.67
2018-12-31T08:31:36.617Z,23.23
2018-12-31T08:34:07.202Z,134.53
2018-12-31T08:36:37.783Z,47.13
2018-12-31T08:39:08.344Z,77.17
2018-12-31T08:41:38.937Z,181.67
2018-12-31T08:44:10.224Z,95.57
2018-12-31T08:46:40.818Z,95.13
2018-12-31T08:49:11.409Z,4.30
2018-12-31T08:51:41.992Z,10.67
2018-12-31T08:54:12.516Z,7.60
2018-12-31T08:56:42.924Z,4.17
2018-12-31T08:59:13.461Z,8.67
2018-12-31T09:01:44.048Z,5.47
2018-12-31T09:04:14.571Z,6.30
2018-12-31T09:06:44.952Z,5.00
2018-12-31T09:09:15.360Z,3.73
2018-12-31T09:11:45.582Z,6.67
2018-12-31T09:14:16.069Z,7.03
2018-12-31T09:16:46.596Z,3.53
2018-12-31T09:19:16.904Z,4.33
2018-12-31T09:21:47.441Z,3.93
2018-12-31T09:24:17.572Z,6.37
2018-12-31T09:26:48.035Z,4.07
2018-12-31T09:29:18.444Z,6.03
2018-12-31T09:31:48.853Z,5.50
2018-12-31T09:34:18.993Z,4.33
2018-12-31T09:36:49.309Z,3.40
2018-12-31T09:39:19.511Z,7.20
2018-12-31T09:41:49.721Z,3.33
2018-12-31T09:44:19.950Z,3.37
2018-12-31T09:46:50.229Z,5.07
2018-12-31T09:49:20.649Z,5.63
2018-12-31T09:51:51.107Z,3.70
2018-12-31T09:54:21.500Z,3.20
2018-12-31T09:56:51.840Z,4.07
2018-12-31T09:59:22.128Z,2.60
2018-12-31T10:01:52.949Z,2.90
2018-12-31T10:04:23.221Z,5.97
2018-12-31T10:06:53.486Z,6.47
2018-12-31T10:09:23.809Z,4.20
2018-12-31T10:11:54.020Z,2.90
2018-12-31T10:14:24.310Z,2.00
2018-12-31T10:16:54.821Z,2.33
2018-12-31T10:19:25.119Z,4.43
2018-12-31T10:21:55.318Z,2.70
2018-12-31T10:24:25.743Z,1.97
2018-12-31T10:26:56.122Z,1.70
2018-12-31T10:29:26.345Z,1.40
2018-12-31T10:31:56.874Z,3.33
2018-12-31T10:34:29.724Z,3.03
2018-12-31T10:36:59.783Z,4.27
2018-12-31T10:39:30.006Z,2.63
2018-12-31T10:42:00.540Z,1.40
2018-12-31T10:44:30.816Z,2.53
2018-12-31T10:47:01.242Z,2.77
2018-12-31T10:49:31.441Z,2.50
2018-12-31T10:52:01.972Z,2.47
2018-12-31T10:54:32.348Z,4.37
2018-12-31T10:57:02.753Z,1.80
2018-12-31T10:59:33.270Z,3.90
2018-12-31T11:02:03.536Z,3.27
2018-12-31T11:04:33.956Z,3.63
2018-12-31T11:07:04.420Z,3.90
2018-12-31T11:09:34.832Z,1.37
2018-12-31T11:12:05.228Z,2.30
2018-12-31T11:14:35.740Z,4.13
2018-12-31T11:17:06.309Z,2.40
2018-12-31T11:19:36.585Z,1.70
2018-12-31T11:22:06.894Z,3.13
2018-12-31T11:24:37.165Z,5.70
2018-12-31T11:27:07.572Z,3.33
2018-12-31T11:29:37.966Z,2.97
2018-12-31T11:32:08.248Z,2.47
2018-12-31T11:34:38.660Z,4.33
2018-12-31T11:37:09.061Z,2.77
2018-12-31T11:39:39.373Z,1.70
2018-12-31T11:42:09.580Z,4.13
2018-12-31T11:44:39.864Z,1.83
2018-12-31T11:47:10.085Z,3.60
2018-12-31T11:49:40.444Z,4.60
2018-12-31T11:52:10.652Z,1.93
2018-12-31T11:54:40.844Z,2.03
2018-12-31T11:57:11.056Z,2.30
2018-12-31T11:59:41.197Z,1.90
2018-12-31T12:02:11.460Z,3.53
2018-12-31T12:04:41.680Z,1.80
2018-12-31T12:07:11.878Z,0.77
2018-12-31T12:09:42.281Z,2.37
2018-12-31T12:12:12.535Z,1.13
2018-12-31T12:14:42.812Z,2.87
2018-12-31T12:17:13.351Z,1.33
2018-12-31T12:19:43.924Z,0.97
2018-12-31T12:22:14.217Z,1.73
2018-12-31T12:24:44.488Z,1.47
2018-12-31T12:27:14.772Z,2.03
2018-12-31T12:29:45.357Z,2.00
2018-12-31T12:32:15.576Z,3.77
2018-12-31T12:34:45.881Z,1.83
2018-12-31T12:37:16.469Z,1.53
2018-12-31T12:39:46.749Z,2.83
2018-12-31T12:42:17.040Z,1.07
2018-12-31T12:44:47.366Z,2.10
2018-12-31T12:47:17.632Z,1.90
2018-12-31T12:49:47.982Z,3.20
2018-12-31T12:52:18.253Z,5.77
2018-12-31T12:54:48.648Z,1.13
2018-12-31T12:57:19.177Z,1.23
2018-12-31T12:59:49.500Z,2.53
2018-12-31T13:02:19.769Z,1.30
2018-12-31T13:04:50.160Z,3.27
2018-12-31T13:07:20.575Z,1.47
2018-12-31T13:09:50.860Z,2.23
2018-12-31T13:12:21.338Z,1.20
2018-12-31T13:14:51.616Z,2.77
2018-12-31T13:17:22.009Z,2.00
2018-12-31T13:19:52.284Z,3.33
2018-12-31T13:22:22.769Z,2.40
2018-12-31T13:24:53.455Z,1.43
2018-12-31T13:27:23.796Z,1.30
2018-12-31T13:29:54.094Z,1.07
2018-12-31T13:32:24.298Z,4.53
2018-12-31T13:34:54.820Z,3.10
2018-12-31T13:37:25.110Z,2.83
2018-12-31T13:39:55.596Z,2.97
2018-12-31T13:42:25.816Z,1.50
2018-12-31T13:45:14.688Z,9.17
2018-12-31T13:47:45.265Z,3.40
2018-12-31T13:50:15.923Z,2.63
2018-12-31T13:52:46.592Z,1.40
2018-12-31T13:55:18.770Z,5.87
2018-12-31T13:57:49.096Z,1.87
2018-12-31T14:00:19.763Z,2.20
2018-12-31T14:02:50.044Z,1.23
2018-12-31T14:05:20.333Z,4.30
2018-12-31T14:07:50.712Z,1.67
2018-12-31T14:10:21.333Z,1.00
2018-12-31T14:12:52.618Z,2.80
2018-12-31T14:15:23.184Z,1.73
2018-12-31T14:17:53.566Z,4.13
2018-12-31T14:20:24.159Z,4.67
2018-12-31T14:22:54.693Z,4.90
2018-12-31T14:25:24.977Z,3.63
2018-12-31T14:27:55.246Z,2.00
2018-12-31T14:30:25.733Z,3.27
2018-12-31T14:32:56.329Z,2.83
2018-12-31T14:35:26.768Z,3.10
2018-12-31T14:37:57.105Z,3.10
2018-12-31T14:40:27.532Z,3.30
2018-12-31T14:42:57.778Z,3.60
2018-12-31T14:45:28.579Z,2.00
2018-12-31T14:48:00.213Z,3.03
2018-12-31T14:50:30.570Z,2.13
2018-12-31T14:53:01.265Z,2.30
2018-12-31T14:55:32.209Z,2.80
2018-12-31T14:58:04.973Z,1.67
2018-12-31T15:00:35.456Z,2.20
2018-12-31T15:03:25.724Z,2.60
2018-12-31T15:05:56.311Z,4.43
2018-12-31T15:08:26.604Z,3.00
2018-12-31T15:10:57.073Z,3.60
2018-12-31T15:13:27.957Z,3.07
2018-12-31T15:15:58.760Z,1.43
2018-12-31T15:18:29.800Z,6.17
2018-12-31T15:21:00.121Z,3.30
2018-12-31T15:23:30.601Z,9.07
2018-12-31T15:26:01.704Z,2.93
2018-12-31T15:28:33.269Z,3.97
2018-12-31T15:31:03.825Z,1.93
2018-12-31T15:33:34.100Z,3.00
2018-12-31T15:36:04.852Z,2.37
2018-12-31T15:38:35.565Z,3.70
2018-12-31T15:41:06.236Z,2.70
2018-12-31T15:43:36.990Z,6.03
2018-12-31T15:46:07.270Z,2.83
2018-12-31T15:48:37.811Z,5.10
2018-12-31T15:51:08.461Z,2.83
2018-12-31T15:53:38.932Z,2.97
2018-12-31T15:56:09.241Z,2.03
2018-12-31T15:58:39.712Z,1.83
2018-12-31T16:01:10.095Z,3.17
2018-12-31T16:03:40.763Z,2.47
2018-12-31T16:06:11.236Z,3.53
2018-12-31T16:08:41.764Z,1.53
2018-12-31T16:11:12.276Z,5.23
2018-12-31T16:13:42.567Z,3.10
2018-12-31T16:16:12.840Z,2.13
2018-12-31T16:18:43.124Z,2.13
2018-12-31T16:21:13.324Z,3.40
2018-12-31T16:23:43.873Z,3.07
2018-12-31T16:26:14.084Z,3.50
2018-12-31T16:28:44.368Z,3.00
2018-12-31T16:31:14.656Z,4.97
2018-12-31T16:33:45.292Z,5.90
2018-12-31T16:36:15.783Z,2.57
2018-12-31T16:38:46.612Z,2.70
2018-12-31T16:41:16.825Z,3.93
2018-12-31T16:43:48.897Z,1.33
2018-12-31T16:46:19.352Z,3.07
2018-12-31T16:48:49.824Z,3.53
2018-12-31T16:51:20.112Z,4.13
2018-12-31T16:53:50.388Z,3.27
2018-12-31T16:56:20.749Z,2.80
2018-12-31T16:58:51.028Z,4.17
2018-12-31T17:01:21.819Z,3.13
2018-12-31T17:03:52.208Z,1.67
2018-12-31T17:06:22.484Z,4.03
2018-12-31T17:08:52.972Z,3.87
2018-12-31T17:11:23.244Z,5.40
2018-12-31T17:13:53.706Z,2.17
2018-12-31T17:16:24.076Z,2.10
2018-12-31T17:18:54.616Z,5.00
2018-12-31T17:21:24.988Z,1.90
2018-12-31T17:23:55.373Z,3.83
2018-12-31T17:26:25.656Z,4.80
2018-12-31T17:28:55.933Z,4.13
2018-12-31T17:31:26.328Z,3.70
2018-12-31T17:33:56.596Z,4.33
2018-12-31T17:36:27.380Z,2.73
2018-12-31T17:38:57.711Z,2.90
2018-12-31T17:41:28.000Z,3.50
2018-12-31T17:43:58.885Z,3.67
2018-12-31T17:46:29.167Z,3.10
2018-12-31T17:48:59.636Z,3.70
2018-12-31T17:51:30.021Z,2.67
2018-12-31T17:54:00.293Z,4.53
2018-12-31T17:56:30.639Z,3.77
2018-12-31T17:59:01.056Z,5.93
2018-12-31T18:01:31.428Z,2.30
2018-12-31T18:04:01.929Z,1.40
2018-12-31T18:06:32.196Z,5.03
2018-12-31T18:09:02.582Z,5.60
2018-12-31T18:11:33.268Z,2.90
2018-12-31T18:14:03.704Z,6.13
2018-12-31T18:16:34.172Z,4.93
2018-12-31T18:19:04.709Z,3.53
2018-12-31T18:21:35.569Z,2.70
2018-12-31T18:24:06.114Z,1.83
2018-12-31T18:26:36.764Z,3.53
2018-12-31T18:29:07.100Z,1.37
2018-12-31T18:31:37.837Z,9.00
2018-12-31T18:34:08.422Z,2.60
2018-12-31T18:36:39.074Z,2.83
2018-12-31T18:39:09.356Z,3.13
2018-12-31T18:41:39.565Z,1.47
2018-12-31T18:44:09.845Z,1.20
2018-12-31T18:46:40.052Z,1.63
2018-12-31T18:49:10.515Z,1.17
2018-12-31T18:51:40.784Z,1.13
2018-12-31T18:54:11.004Z,1.73
2018-12-31T18:56:42.048Z,2.10
2018-12-31T18:59:12.272Z,1.40
2018-12-31T19:01:42.811Z,1.30
2018-12-31T19:04:13.044Z,1.67
2018-12-31T19:06:43.316Z,1.00
2018-12-31T19:09:13.612Z,2.60
2018-12-31T19:11:43.880Z,3.93
2018-12-31T19:14:14.168Z,0.87
2018-12-31T19:16:44.714Z,1.87
2018-12-31T19:19:15.208Z,0.97
2018-12-31T19:21:47.408Z,2.37
2018-12-31T19:24:17.656Z,3.33
2018-12-31T19:26:48.031Z,2.80
2018-12-31T19:29:18.452Z,3.17
2018-12-31T19:31:48.957Z,1.40
2018-12-31T19:34:19.240Z,4.80
2018-12-31T19:36:49.525Z,3.77
2018-12-31T19:39:20.008Z,2.03
2018-12-31T19:41:50.307Z,2.00
2018-12-31T19:44:20.497Z,1.40
2018-12-31T19:46:50.788Z,2.30
2018-12-31T19:49:21.063Z,1.37
2018-12-31T19:51:51.348Z,2.27
2018-12-31T19:54:21.848Z,5.50
2018-12-31T19:56:52.149Z,6.93
2018-12-31T19:59:22.640Z,5.20
2018-12-31T20:01:53.034Z,3.63
2018-12-31T20:04:24.015Z,3.63
2018-12-31T20:07:01.170Z,4.67
2018-12-31T20:09:26.634Z,3.73
2018-12-31T20:11:57.229Z,3.00
2018-12-31T20:14:27.603Z,1.97
2018-12-31T20:16:58.033Z,3.23
2018-12-31T20:19:28.317Z,3.93
2018-12-31T20:21:58.661Z,4.43
2018-12-31T20:24:29.141Z,3.70
2018-12-31T20:26:59.518Z,11.57
2018-12-31T20:29:29.969Z,3.50
2018-12-31T20:32:00.440Z,3.20
2018-12-31T20:34:30.924Z,4.60
2018-12-31T20:37:01.481Z,4.87
2018-12-31T20:39:31.680Z,4.97
2018-12-31T20:42:01.980Z,4.70
2018-12-31T20:44:32.518Z,5.10
2018-12-31T20:47:02.940Z,2.80
2018-12-31T20:49:33.437Z,4.80
2018-12-31T20:52:04.108Z,4.80
2018-12-31T20:54:34.309Z,5.80
2018-12-31T20:57:04.765Z,6.77
2018-12-31T20:59:35.331Z,7.53
2018-12-31T21:02:05.872Z,5.27
2018-12-31T21:04:36.356Z,6.00
2018-12-31T21:07:07.251Z,5.07
2018-12-31T21:09:37.592Z,5.87
2018-12-31T21:12:07.871Z,6.90
2018-12-31T21:14:38.152Z,8.80
2018-12-31T21:17:09.024Z,8.60
2018-12-31T21:19:39.236Z,5.83
2018-12-31T21:22:09.892Z,9.00
2018-12-31T21:24:40.448Z,7.33
2018-12-31T21:27:10.941Z,8.53
2018-12-31T21:29:41.421Z,5.60
2018-12-31T21:32:11.777Z,5.53
2018-12-31T21:34:42.264Z,5.77
2018-12-31T21:37:12.692Z,6.53
2018-12-31T21:39:43.164Z,3.17
2018-12-31T21:42:13.864Z,4.60
2018-12-31T21:44:44.139Z,4.27
2018-12-31T21:47:14.424Z,4.67
2018-12-31T21:49:44.892Z,7.23
2018-12-31T21:52:15.396Z,7.27
2018-12-31T21:54:45.804Z,5.27
2018-12-31T21:57:16.107Z,5.50
2018-12-31T21:59:47.241Z,5.10
2018-12-31T22:02:17.716Z,7.27
2018-12-31T22:04:48.296Z,8.60
2018-12-31T22:07:18.867Z,7.73
2018-12-31T22:09:49.491Z,7.20
2018-12-31T22:12:19.762Z,6.33
2018-12-31T22:14:50.028Z,5.80
2018-12-31T22:17:20.328Z,5.43
2018-12-31T22:19:50.601Z,3.63
2018-12-31T22:22:21.188Z,6.47
2018-12-31T22:24:51.808Z,4.57
2018-12-31T22:27:22.128Z,8.27
2018-12-31T22:29:52.800Z,4.37
2018-12-31T22:32:23.284Z,4.10
2018-12-31T22:34:53.652Z,5.53
2018-12-31T22:37:24.173Z,3.40
2018-12-31T22:39:54.524Z,6.50
2018-12-31T22:42:24.820Z,7.27
2018-12-31T22:44:55.396Z,2.53
2018-12-31T22:47:25.884Z,4.33
2018-12-31T22:49:56.252Z,6.73
2018-12-31T22:52:26.727Z,3.73
2018-12-31T22:54:57.212Z,7.57
2018-12-31T22:57:27.698Z,4.33
2018-12-31T22:59:58.220Z,4.40
2018-12-31T23:02:28.430Z,6.70
2018-12-31T23:04:59.029Z,31.57
2018-12-31T23:07:29.612Z,21.10
2018-12-31T23:10:00.123Z,87.57
2018-12-31T23:12:30.730Z,22.73
2018-12-31T23:15:01.221Z,30.70
2018-12-31T23:17:31.704Z,28.53
2018-12-31T23:20:02.285Z,30.33
2018-12-31T23:22:32.495Z,29.17
2018-12-31T23:25:03.229Z,29.50
2018-12-31T23:27:34.100Z,24.13
2018-12-31T23:30:07.928Z,17.57
2018-12-31T23:32:38.429Z,17.23
2018-12-31T23:35:09.275Z,13.53
2018-12-31T23:37:40.214Z,15.77
2018-12-31T23:40:10.652Z,11.13
2018-12-31T23:42:41.141Z,12.17
2018-12-31T23:45:11.972Z,15.87
2018-12-31T23:47:42.564Z,18.27
2018-12-31T23:50:13.312Z,20.60
2018-12-31T23:52:43.649Z,21.73
2018-12-31T23:55:14.100Z,22.40
2018-12-31T23:57:44.469Z,20.07
